Time;durP1;ratioP1;P1;durP2;ratioP2;P2;SDS_P1;SDS_P2;PMS_P1;PMS_P2;Temp;Humidity;BMP_temperature;BMP_pressure;BME280_temperature;BME280_humidity;BME280_pressure;Samples;Min_cycle;Max_cycle;Signal;HPM_P1;HPM_P2
2021/09/06 00:02:25;;;;;;;25.83;18.20;;;;;;;;;;5073241;28;20454;-69
2021/09/06 00:04:53;;;;;;;25.30;18.27;;;;;;;;;;5073169;28;20468;-69
2021/09/06 00:07:20;;;;;;;24.80;17.20;;;;;;;;;;5073220;28;20484;-69
2021/09/06 00:09:51;;;;;;;24.10;18.73;;;;;;;;;;5073678;28;20449;-69
2021/09/06 00:12:18;;;;;;;27.13;17.83;;;;;;;;;;5072947;28;20432;-69
2021/09/06 00:14:45;;;;;;;25.37;18.47;;;;;;;;;;5073570;28;20449;-69
2021/09/06 00:17:12;;;;;;;24.37;19.10;;;;;;;;;;5073129;28;20445;-69
2021/09/06 00:19:40;;;;;;;27.43;20.03;;;;;;;;;;5073595;28;20446;-69
2021/09/06 00:22:08;;;;;;;24.80;18.87;;;;;;;;;;5073371;28;20469;-69
2021/09/06 00:24:35;;;;;;;23.83;17.90;;;;;;;;;;5072947;28;20482;-68
2021/09/06 00:27:02;;;;;;;27.70;18.57;;;;;;;;;;5073019;28;20438;-68
2021/09/06 00:29:30;;;;;;;29.00;19.13;;;;;;;;;;5073826;28;20441;-68
2021/09/06 00:31:57;;;;;;;27.70;18.90;;;;;;;;;;5072957;28;20453;-68
2021/09/06 00:34:24;;;;;;;21.87;16.73;;;;;;;;;;5073660;28;20447;-68
2021/09/06 00:36:51;;;;;;;22.40;17.10;;;;;;;;;;5072900;28;20446;-68
2021/09/06 00:39:20;;;;;;;25.23;17.70;;;;;;;;;;5072893;28;20454;-68
2021/09/06 00:41:47;;;;;;;24.70;18.17;;;;;;;;;;5073219;28;20528;-68
2021/09/06 00:44:14;;;;;;;25.10;18.80;;;;;;;;;;5072773;28;20473;-69
2021/09/06 00:46:45;;;;;;;25.57;17.57;;;;;;;;;;5073094;28;20446;-69
2021/09/06 00:49:12;;;;;;;24.13;18.23;;;;;;;;;;5072979;28;20509;-69
2021/09/06 00:51:39;;;;;;;25.40;18.63;;;;;;;;;;5072717;28;20439;-69
2021/09/06 00:54:07;;;;;;;23.67;19.30;;;;;;;;;;5072992;28;20446;-69
2021/09/06 00:56:35;;;;;;;21.03;17.40;;;;;;;;;;5072728;28;20963;-68
2021/09/06 00:59:03;;;;;;;23.33;18.57;;;;;;;;;;5073128;28;20446;-69
2021/09/06 01:01:30;;;;;;;25.30;19.23;;;;;;;;;;5073286;28;20803;-68
2021/09/06 01:03:57;;;;;;;27.60;19.93;;;;;;;;;;5072560;28;20510;-68
2021/09/06 01:06:24;;;;;;;28.30;18.77;;;;;;;;;;5072683;28;20531;-68
2021/09/06 01:08:52;;;;;;;29.90;19.63;;;;;;;;;;5072867;28;20484;-68
2021/09/06 01:11:19;;;;;;;24.60;19.20;;;;;;;;;;5072889;28;20443;-68
2021/09/06 01:13:47;;;;;;;23.80;18.60;;;;;;;;;;5073297;28;20797;-69
2021/09/06 01:16:15;;;;;;;25.57;19.10;;;;;;;;;;5073665;28;20525;-68
2021/09/06 01:18:42;;;;;;;25.23;20.10;;;;;;;;;;5072551;28;20441;-68
2021/09/06 01:21:09;;;;;;;28.47;21.33;;;;;;;;;;5073223;28;20440;-68
2021/09/06 01:23:36;;;;;;;26.53;18.90;;;;;;;;;;5073985;28;20473;-68
2021/09/06 01:26:05;;;;;;;28.17;20.53;;;;;;;;;;5076401;28;20446;-69
2021/09/06 01:28:32;;;;;;;33.40;20.37;;;;;;;;;;5075969;28;20447;-69
2021/09/06 01:30:59;;;;;;;30.40;21.90;;;;;;;;;;5076427;28;20524;-68
2021/09/06 01:33:26;;;;;;;31.17;23.00;;;;;;;;;;5076250;28;20443;-68
2021/09/06 01:35:53;;;;;;;26.80;21.93;;;;;;;;;;5076358;28;20445;-68
2021/09/06 01:38:21;;;;;;;30.43;21.90;;;;;;;;;;5075904;28;20439;-68
2021/09/06 01:40:48;;;;;;;31.73;23.10;;;;;;;;;;5076256;28;20643;-68
2021/09/06 01:43:17;;;;;;;26.23;20.60;;;;;;;;;;5076123;28;20535;-68
2021/09/06 01:45:44;;;;;;;34.00;24.83;;;;;;;;;;5076111;28;20476;-69
2021/09/06 01:48:11;;;;;;;28.27;20.20;;;;;;;;;;5075975;28;20493;-68
2021/09/06 01:50:39;;;;;;;30.33;22.83;;;;;;;;;;5076295;28;20519;-69
2021/09/06 01:53:06;;;;;;;32.23;21.60;;;;;;;;;;5075963;28;20445;-68
2021/09/06 01:55:33;;;;;;;26.50;20.93;;;;;;;;;;5075928;28;20441;-68
2021/09/06 01:58:00;;;;;;;28.33;21.37;;;;;;;;;;5076149;28;20447;-68
2021/09/06 02:00:28;;;;;;;34.73;21.00;;;;;;;;;;5076036;28;20455;-68
2021/09/06 02:02:56;;;;;;;31.47;22.73;;;;;;;;;;5075509;28;20458;-68
2021/09/06 02:05:23;;;;;;;34.03;22.40;;;;;;;;;;5075392;28;20819;-68
2021/09/06 02:07:51;;;;;;;29.40;21.40;;;;;;;;;;5075714;28;20436;-68
2021/09/06 02:10:18;;;;;;;32.87;23.30;;;;;;;;;;5075623;28;20537;-68
2021/09/06 02:12:46;;;;;;;31.40;21.70;;;;;;;;;;5076159;28;20434;-68
2021/09/06 02:15:13;;;;;;;32.63;23.20;;;;;;;;;;5075251;28;20442;-68
2021/09/06 02:17:41;;;;;;;35.50;24.07;;;;;;;;;;5075181;28;20946;-69
2021/09/06 02:20:09;;;;;;;32.00;23.10;;;;;;;;;;5075503;28;20441;-68
2021/09/06 02:22:36;;;;;;;30.70;22.83;;;;;;;;;;5075437;28;20447;-68
2021/09/06 02:25:04;;;;;;;31.30;21.90;;;;;;;;;;5075330;28;20476;-68
2021/09/06 02:27:31;;;;;;;28.23;21.90;;;;;;;;;;5075588;28;20448;-68
2021/09/06 02:29:58;;;;;;;34.70;24.03;;;;;;;;;;5075480;28;20445;-69
2021/09/06 02:32:26;;;;;;;32.73;23.60;;;;;;;;;;5074915;28;20444;-68
2021/09/06 02:34:54;;;;;;;27.23;22.47;;;;;;;;;;5074409;28;20449;-68
2021/09/06 02:37:21;;;;;;;31.73;23.90;;;;;;;;;;5074638;28;20442;-68
2021/09/06 02:39:48;;;;;;;29.33;22.17;;;;;;;;;;5074830;28;20965;-68
2021/09/06 02:42:16;;;;;;;35.40;23.90;;;;;;;;;;5074729;28;20443;-68
2021/09/06 02:44:43;;;;;;;31.97;22.00;;;;;;;;;;5074700;28;20487;-69
2021/09/06 02:47:10;;;;;;;33.20;21.37;;;;;;;;;;5075239;28;20444;-68
2021/09/06 02:49:37;;;;;;;30.70;22.80;;;;;;;;;;5075052;28;20474;-68
2021/09/06 02:52:06;;;;;;;28.40;22.33;;;;;;;;;;5074903;28;20448;-68
2021/09/06 02:54:33;;;;;;;36.40;22.70;;;;;;;;;;5074642;28;20441;-68
2021/09/06 02:57:00;;;;;;;32.43;23.90;;;;;;;;;;5074751;28;20791;-69
2021/09/06 02:59:28;;;;;;;31.60;23.97;;;;;;;;;;5074634;28;20537;-68
2021/09/06 03:01:55;;;;;;;30.00;21.17;;;;;;;;;;5074887;28;20531;-69
2021/09/06 03:04:22;;;;;;;35.10;22.90;;;;;;;;;;5074475;28;20476;-68
2021/09/06 03:06:49;;;;;;;32.57;22.70;;;;;;;;;;5074532;28;20441;-68
2021/09/06 03:09:17;;;;;;;34.30;23.00;;;;;;;;;;5074713;28;20441;-68
2021/09/06 03:11:45;;;;;;;31.50;22.10;;;;;;;;;;5074085;28;20443;-68
2021/09/06 03:14:12;;;;;;;31.90;22.70;;;;;;;;;;5074341;28;20475;-69
2021/09/06 03:16:39;;;;;;;31.60;23.40;;;;;;;;;;5074307;28;20445;-68
2021/09/06 03:19:06;;;;;;;37.23;24.10;;;;;;;;;;5074270;28;20437;-69
2021/09/06 03:21:33;;;;;;;33.50;24.00;;;;;;;;;;5074994;28;20468;-69
2021/09/06 03:24:00;;;;;;;30.80;22.33;;;;;;;;;;5074496;28;20445;-68
2021/09/06 03:26:29;;;;;;;29.70;22.37;;;;;;;;;;5074130;28;20452;-68
2021/09/06 03:28:56;;;;;;;41.77;23.57;;;;;;;;;;5074011;28;20535;-68
2021/09/06 03:31:23;;;;;;;31.10;22.70;;;;;;;;;;5074813;28;20451;-68
2021/09/06 03:33:51;;;;;;;30.87;23.20;;;;;;;;;;5073712;28;20442;-68
2021/09/06 03:36:18;;;;;;;32.00;23.80;;;;;;;;;;5074003;28;20445;-68
2021/09/06 03:38:45;;;;;;;39.37;23.20;;;;;;;;;;5073637;28;20448;-68
2021/09/06 03:41:13;;;;;;;34.17;23.63;;;;;;;;;;5073601;28;20947;-68
2021/09/06 03:43:41;;;;;;;31.90;23.13;;;;;;;;;;5073822;28;20452;-68
2021/09/06 03:46:09;;;;;;;35.23;23.77;;;;;;;;;;5073646;28;20986;-68
2021/09/06 03:48:36;;;;;;;38.93;24.17;;;;;;;;;;5073847;28;20809;-68
2021/09/06 03:51:03;;;;;;;34.17;24.40;;;;;;;;;;5073439;28;20442;-68
2021/09/06 03:53:30;;;;;;;37.07;25.90;;;;;;;;;;5073425;28;20947;-68
2021/09/06 03:55:57;;;;;;;27.80;21.53;;;;;;;;;;5073778;28;20445;-68
2021/09/06 03:58:25;;;;;;;35.83;23.47;;;;;;;;;;5073603;28;20466;-69
2021/09/06 04:00:53;;;;;;;34.63;24.20;;;;;;;;;;5073644;28;20444;-68
2021/09/06 04:03:20;;;;;;;32.47;24.30;;;;;;;;;;5073304;28;20532;-68
2021/09/06 04:05:47;;;;;;;33.70;24.57;;;;;;;;;;5073193;28;20476;-68
2021/09/06 04:08:15;;;;;;;31.47;23.40;;;;;;;;;;5074342;28;20531;-68
2021/09/06 04:10:42;;;;;;;34.30;23.47;;;;;;;;;;5073200;28;20970;-68
2021/09/06 04:13:09;;;;;;;29.67;22.90;;;;;;;;;;5074041;28;20459;-68
2021/09/06 04:15:36;;;;;;;28.90;22.33;;;;;;;;;;5073887;28;20451;-67
2021/09/06 04:18:05;;;;;;;34.90;23.93;;;;;;;;;;5073447;28;20448;-66
2021/09/06 04:20:32;;;;;;;34.17;24.63;;;;;;;;;;5073434;28;20795;-68
2021/09/06 04:22:59;;;;;;;32.60;25.30;;;;;;;;;;5073052;28;20440;-68
2021/09/06 04:25:26;;;;;;;26.70;22.07;;;;;;;;;;5072969;28;21012;-68
2021/09/06 04:27:54;;;;;;;31.60;23.70;;;;;;;;;;5073929;28;20531;-68
2021/09/06 04:30:21;;;;;;;40.00;24.37;;;;;;;;;;5072180;28;20448;-68
2021/09/06 04:32:48;;;;;;;36.87;24.70;;;;;;;;;;5072784;28;20444;-69
2021/09/06 04:35:17;;;;;;;33.83;24.37;;;;;;;;;;5073259;28;20871;-69
2021/09/06 04:37:44;;;;;;;39.53;24.50;;;;;;;;;;5073312;28;20445;-69
2021/09/06 04:40:12;;;;;;;30.10;23.60;;;;;;;;;;5072912;28;20441;-68
2021/09/06 04:42:39;;;;;;;37.77;24.50;;;;;;;;;;5073004;28;20802;-68
2021/09/06 04:45:07;;;;;;;32.10;23.20;;;;;;;;;;5073043;28;20850;-68
2021/09/06 04:47:34;;;;;;;33.37;23.17;;;;;;;;;;5073648;28;20432;-69
2021/09/06 04:50:01;;;;;;;32.57;22.27;;;;;;;;;;5072787;28;20475;-69
2021/09/06 04:52:30;;;;;;;32.33;23.53;;;;;;;;;;5072528;28;20442;-69
2021/09/06 04:54:57;;;;;;;33.40;23.57;;;;;;;;;;5072715;28;20440;-69
2021/09/06 04:57:25;;;;;;;31.73;22.23;;;;;;;;;;5072389;28;20844;-68
2021/09/06 04:59:52;;;;;;;31.70;22.10;;;;;;;;;;5073897;28;20453;-69
2021/09/06 05:02:19;;;;;;;33.50;24.90;;;;;;;;;;5076766;28;20436;-69
2021/09/06 05:04:46;;;;;;;34.40;24.80;;;;;;;;;;5076317;28;20475;-69
2021/09/06 05:07:14;;;;;;;35.00;24.40;;;;;;;;;;5076259;28;20436;-69
2021/09/06 05:09:42;;;;;;;33.60;23.87;;;;;;;;;;5075527;28;20436;-69
2021/09/06 05:12:10;;;;;;;32.33;23.50;;;;;;;;;;5075267;28;20445;-69
2021/09/06 05:14:37;;;;;;;33.43;24.17;;;;;;;;;;5075425;28;20436;-69
2021/09/06 05:17:04;;;;;;;30.87;22.80;;;;;;;;;;5075661;28;20445;-69
2021/09/06 05:19:31;;;;;;;30.40;22.23;;;;;;;;;;5076259;28;20527;-68
2021/09/06 05:21:59;;;;;;;35.97;23.57;;;;;;;;;;5075984;28;20961;-70
2021/09/06 05:24:26;;;;;;;43.67;27.80;;;;;;;;;;5076335;28;20458;-73
2021/09/06 05:26:54;;;;;;;41.73;26.40;;;;;;;;;;5076403;28;20557;-69
2021/09/06 05:29:21;;;;;;;36.17;24.43;;;;;;;;;;5076803;28;20450;-68
2021/09/06 05:31:49;;;;;;;35.20;23.63;;;;;;;;;;5076013;28;20446;-68
2021/09/06 05:34:16;;;;;;;38.07;24.93;;;;;;;;;;5076352;28;20996;-69
2021/09/06 05:36:43;;;;;;;33.70;23.70;;;;;;;;;;5076179;28;20447;-70
2021/09/06 05:39:10;;;;;;;37.83;26.30;;;;;;;;;;5076589;28;20440;-69
2021/09/06 05:41:37;;;;;;;31.73;24.70;;;;;;;;;;5076314;28;20447;-68
2021/09/06 05:44:08;;;;;;;35.33;25.53;;;;;;;;;;5075593;28;20939;-69
2021/09/06 05:46:35;;;;;;;35.70;24.53;;;;;;;;;;5076064;28;20460;-68
2021/09/06 05:49:02;;;;;;;33.43;23.10;;;;;;;;;;5075651;28;20475;-68
2021/09/06 05:51:29;;;;;;;34.90;26.17;;;;;;;;;;5076279;28;20445;-69
2021/09/06 05:53:57;;;;;;;35.80;24.77;;;;;;;;;;5075665;28;20449;-68
2021/09/06 05:56:24;;;;;;;32.67;24.77;;;;;;;;;;5076023;28;20530;-69
2021/09/06 05:58:51;;;;;;;32.27;23.53;;;;;;;;;;5075622;28;20448;-69
2021/09/06 06:01:20;;;;;;;35.63;25.27;;;;;;;;;;5075801;28;20449;-68
2021/09/06 06:03:47;;;;;;;39.37;25.80;;;;;;;;;;5075436;28;20445;-69
2021/09/06 06:06:14;;;;;;;38.27;27.80;;;;;;;;;;5075301;28;20979;-69
2021/09/06 06:08:41;;;;;;;38.20;25.87;;;;;;;;;;5075601;28;20461;-68
2021/09/06 06:11:08;;;;;;;38.03;25.57;;;;;;;;;;5075485;28;20493;-68
2021/09/06 06:13:35;;;;;;;39.97;25.97;;;;;;;;;;5075529;28;20441;-68
2021/09/06 06:16:03;;;;;;;32.20;24.60;;;;;;;;;;5075269;28;20539;-68
2021/09/06 06:18:31;;;;;;;41.77;25.67;;;;;;;;;;5075386;28;20559;-68
2021/09/06 06:20:58;;;;;;;41.50;27.10;;;;;;;;;;5075692;28;20441;-68
2021/09/06 06:23:26;;;;;;;38.57;25.77;;;;;;;;;;5075046;28;20478;-68
2021/09/06 06:25:53;;;;;;;39.30;27.07;;;;;;;;;;5075622;28;20917;-68
2021/09/06 06:28:20;;;;;;;37.90;26.37;;;;;;;;;;5074829;28;20442;-68
2021/09/06 06:30:47;;;;;;;43.17;26.57;;;;;;;;;;5075273;28;20438;-69
2021/09/06 06:33:14;;;;;;;43.37;26.97;;;;;;;;;;5074798;28;20536;-68
2021/09/06 06:35:43;;;;;;;45.33;28.70;;;;;;;;;;5075250;28;20448;-68
2021/09/06 06:38:10;;;;;;;44.73;30.77;;;;;;;;;;5075230;28;20444;-69
2021/09/06 06:40:37;;;;;;;37.17;27.63;;;;;;;;;;5075032;28;20449;-69
2021/09/06 06:43:05;;;;;;;50.90;32.67;;;;;;;;;;5074867;28;20441;-69
2021/09/06 06:45:32;;;;;;;43.17;30.90;;;;;;;;;;5074510;28;20473;-69
2021/09/06 06:47:59;;;;;;;44.10;31.43;;;;;;;;;;5074852;28;20460;-69
2021/09/06 06:50:26;;;;;;;41.37;28.70;;;;;;;;;;5075514;28;20830;-69
2021/09/06 06:52:55;;;;;;;46.87;31.10;;;;;;;;;;5074521;28;20479;-69
2021/09/06 06:55:23;;;;;;;47.77;29.90;;;;;;;;;;5074695;28;20450;-69
2021/09/06 06:57:50;;;;;;;46.37;32.00;;;;;;;;;;5075065;28;20450;-69
2021/09/06 07:00:18;;;;;;;44.47;30.80;;;;;;;;;;5074809;28;20449;-68
2021/09/06 07:02:45;;;;;;;44.60;30.90;;;;;;;;;;5074261;28;20447;-68
2021/09/06 07:05:12;;;;;;;39.90;28.20;;;;;;;;;;5074370;28;20773;-68
2021/09/06 07:07:40;;;;;;;43.80;28.30;;;;;;;;;;5074152;28;20454;-69
2021/09/06 07:10:09;;;;;;;41.73;27.37;;;;;;;;;;5074120;28;20449;-68
2021/09/06 07:12:36;;;;;;;42.17;28.33;;;;;;;;;;5074023;28;20953;-69
2021/09/06 07:15:03;;;;;;;39.73;27.37;;;;;;;;;;5074282;28;20441;-69
2021/09/06 07:17:30;;;;;;;41.50;25.43;;;;;;;;;;5074294;28;20458;-69
2021/09/06 07:19:58;;;;;;;35.80;27.77;;;;;;;;;;5074098;28;20438;-69
2021/09/06 07:22:25;;;;;;;39.50;24.93;;;;;;;;;;5073528;28;20536;-69
2021/09/06 07:24:53;;;;;;;32.63;25.93;;;;;;;;;;5074112;28;20443;-68
2021/09/06 07:27:22;;;;;;;29.40;23.23;;;;;;;;;;5074142;28;20530;-69
2021/09/06 07:29:49;;;;;;;35.67;25.63;;;;;;;;;;5074318;28;20450;-69
2021/09/06 07:32:16;;;;;;;32.00;24.03;;;;;;;;;;5073651;28;20452;-69
2021/09/06 07:34:43;;;;;;;40.23;24.83;;;;;;;;;;5073597;28;20446;-68
2021/09/06 07:37:10;;;;;;;32.80;23.37;;;;;;;;;;5073835;28;20928;-68
2021/09/06 07:39:38;;;;;;;31.40;24.40;;;;;;;;;;5073717;28;20457;-69
2021/09/06 07:42:05;;;;;;;31.50;24.10;;;;;;;;;;5074054;28;20552;-69
2021/09/06 07:44:34;;;;;;;30.00;22.33;;;;;;;;;;5074327;28;20536;-68
2021/09/06 07:47:01;;;;;;;44.80;27.73;;;;;;;;;;5073666;28;20584;-68
2021/09/06 07:49:29;;;;;;;32.03;25.53;;;;;;;;;;5073337;28;20567;-68
2021/09/06 07:51:56;;;;;;;37.63;23.73;;;;;;;;;;5073949;28;20442;-68
2021/09/06 07:54:24;;;;;;;36.23;22.60;;;;;;;;;;5073668;28;20782;-68
2021/09/06 07:56:53;;;;;;;31.63;24.63;;;;;;;;;;5073619;28;20452;-68
2021/09/06 07:59:20;;;;;;;31.47;23.07;;;;;;;;;;5073607;28;20440;-68
2021/09/06 08:01:49;;;;;;;39.30;22.97;;;;;;;;;;5073213;28;20478;-68
2021/09/06 08:04:16;;;;;;;30.40;22.93;;;;;;;;;;5073267;28;20439;-69
2021/09/06 08:06:44;;;;;;;39.80;25.40;;;;;;;;;;5073590;28;20475;-69
2021/09/06 08:09:11;;;;;;;34.67;22.40;;;;;;;;;;5073190;28;20472;-68
2021/09/06 08:11:39;;;;;;;31.40;22.50;;;;;;;;;;5073609;28;20440;-68
2021/09/06 08:14:06;;;;;;;29.87;20.77;;;;;;;;;;5073418;28;20449;-68
2021/09/06 08:16:33;;;;;;;34.60;21.43;;;;;;;;;;5073322;28;20455;-69
2021/09/06 08:19:02;;;;;;;32.83;23.13;;;;;;;;;;5073472;28;20797;-68
2021/09/06 08:21:30;;;;;;;32.77;21.73;;;;;;;;;;5072952;28;20444;-68
2021/09/06 08:23:57;;;;;;;30.17;20.83;;;;;;;;;;5073281;28;20440;-68
2021/09/06 08:26:25;;;;;;;31.63;22.67;;;;;;;;;;5072848;28;20478;-68
2021/09/06 08:28:52;;;;;;;31.17;21.20;;;;;;;;;;5073617;28;20488;-68
2021/09/06 08:31:19;;;;;;;31.13;21.93;;;;;;;;;;5073234;28;20528;-69
2021/09/06 08:33:46;;;;;;;32.57;22.43;;;;;;;;;;5074292;28;20443;-68
2021/09/06 08:36:15;;;;;;;30.70;20.83;;;;;;;;;;5077731;28;20532;-68
2021/09/06 08:38:42;;;;;;;28.63;21.80;;;;;;;;;;5077351;28;20521;-68
2021/09/06 08:41:10;;;;;;;33.40;22.53;;;;;;;;;;5077172;28;20542;-69
2021/09/06 08:43:37;;;;;;;35.03;24.60;;;;;;;;;;5077204;28;20445;-68
2021/09/06 08:46:04;;;;;;;30.47;21.67;;;;;;;;;;5077036;28;20484;-68
2021/09/06 08:48:32;;;;;;;34.30;25.03;;;;;;;;;;5077050;28;20465;-68
2021/09/06 08:50:59;;;;;;;34.07;23.10;;;;;;;;;;5077089;28;20436;-68
2021/09/06 08:53:28;;;;;;;32.67;24.53;;;;;;;;;;5077083;28;20445;-68
2021/09/06 08:55:55;;;;;;;34.20;20.60;;;;;;;;;;5076973;28;20443;-68
2021/09/06 08:58:22;;;;;;;28.20;20.60;;;;;;;;;;5076815;28;20526;-68
2021/09/06 09:00:50;;;;;;;33.20;21.93;;;;;;;;;;5077601;28;20448;-68
2021/09/06 09:03:18;;;;;;;29.70;21.20;;;;;;;;;;5076539;28;20926;-68
2021/09/06 09:05:58;;;;;;;30.23;21.73;;;;;;;;;;5076732;28;20438;-68
2021/09/06 09:08:26;;;;;;;24.60;19.20;;;;;;;;;;5076994;28;20433;-68
2021/09/06 09:10:57;;;;;;;26.47;19.80;;;;;;;;;;5076400;28;20431;-68
2021/09/06 09:13:28;;;;;;;27.70;20.13;;;;;;;;;;5076377;28;20423;-68
2021/09/06 09:15:56;;;;;;;29.53;21.40;;;;;;;;;;5076920;28;20530;-68
2021/09/06 09:18:24;;;;;;;30.13;18.43;;;;;;;;;;5076198;28;20533;-68
2021/09/06 09:20:57;;;;;;;29.20;21.80;;;;;;;;;;5076708;28;20435;-68
2021/09/06 09:23:35;;;;;;;31.43;20.10;;;;;;;;;;5076188;28;20436;-68
2021/09/06 09:26:04;;;;;;;25.27;18.83;;;;;;;;;;5076250;28;20431;-68
2021/09/06 09:28:32;;;;;;;27.27;19.70;;;;;;;;;;5076534;28;20853;-68
2021/09/06 09:31:06;;;;;;;25.00;19.67;;;;;;;;;;5076346;28;20446;-68
2021/09/06 09:33:44;;;;;;;25.37;19.23;;;;;;;;;;5076270;28;20437;-68
2021/09/06 09:36:11;;;;;;;28.17;19.80;;;;;;;;;;5076605;28;20503;-68
2021/09/06 09:38:39;;;;;;;24.13;18.50;;;;;;;;;;5076001;28;20449;-68
2021/09/06 09:41:14;;;;;;;24.30;17.20;;;;;;;;;;5075988;28;20452;-68
2021/09/06 09:43:41;;;;;;;25.27;18.10;;;;;;;;;;5076820;28;20434;-68
2021/09/06 09:46:09;;;;;;;30.90;18.83;;;;;;;;;;5075200;28;20968;-68
2021/09/06 09:48:37;;;;;;;26.30;17.87;;;;;;;;;;5076171;28;20470;-69
2021/09/06 09:51:04;;;;;;;30.47;21.67;;;;;;;;;;5075885;28;20820;-68
2021/09/06 09:53:32;;;;;;;31.73;20.87;;;;;;;;;;5075833;28;20445;-68
2021/09/06 09:55:59;;;;;;;27.07;20.03;;;;;;;;;;5075446;28;20531;-68
2021/09/06 09:58:28;;;;;;;26.40;18.83;;;;;;;;;;5075698;28;20546;-69
2021/09/06 10:00:57;;;;;;;30.17;21.63;;;;;;;;;;5075886;28;20504;-69
2021/09/06 10:03:25;;;;;;;23.73;18.53;;;;;;;;;;5075956;28;20454;-68
2021/09/06 10:05:53;;;;;;;32.87;26.70;;;;;;;;;;5075735;28;20454;-69
2021/09/06 10:08:20;;;;;;;25.10;16.50;;;;;;;;;;5075590;28;20473;-68
2021/09/06 10:10:48;;;;;;;33.17;17.90;;;;;;;;;;5075478;28;20441;-69
2021/09/06 10:13:15;;;;;;;23.17;17.47;;;;;;;;;;5076127;28;20444;-68
2021/09/06 10:15:45;;;;;;;37.97;17.50;;;;;;;;;;5075573;28;20502;-69
2021/09/06 10:18:17;;;;;;;70.07;21.60;;;;;;;;;;5075172;28;20448;-68
2021/09/06 10:20:44;;;;;;;35.20;17.03;;;;;;;;;;5075186;28;20437;-69
2021/09/06 10:23:12;;;;;;;27.70;19.17;;;;;;;;;;5075402;28;20433;-68
2021/09/06 10:25:40;;;;;;;22.20;17.20;;;;;;;;;;5075927;28;20440;-69
2021/09/06 10:28:08;;;;;;;24.47;16.40;;;;;;;;;;5075174;28;20476;-68
2021/09/06 10:30:36;;;;;;;24.63;17.50;;;;;;;;;;5074866;28;20451;-69
2021/09/06 10:33:05;;;;;;;21.47;14.90;;;;;;;;;;5075316;28;20573;-69
2021/09/06 10:35:32;;;;;;;20.70;16.03;;;;;;;;;;5075078;28;20946;-69
2021/09/06 10:38:01;;;;;;;20.50;15.07;;;;;;;;;;5074713;28;20455;-69
2021/09/06 10:40:29;;;;;;;20.63;15.30;;;;;;;;;;5074651;28;20439;-69
2021/09/06 10:42:56;;;;;;;30.57;15.63;;;;;;;;;;5074610;28;20532;-69
2021/09/06 10:45:25;;;;;;;23.80;16.63;;;;;;;;;;5074918;28;20527;-69
2021/09/06 10:47:58;;;;;;;22.77;16.50;;;;;;;;;;5074811;28;20970;-68
2021/09/06 10:50:27;;;;;;;27.97;15.10;;;;;;;;;;5076030;28;20475;-68
2021/09/06 10:52:55;;;;;;;18.93;14.20;;;;;;;;;;5074785;28;20443;-69
2021/09/06 10:55:22;;;;;;;20.83;13.70;;;;;;;;;;5074405;28;20456;-68
2021/09/06 10:57:49;;;;;;;51.50;16.47;;;;;;;;;;5074194;28;20534;-68
2021/09/06 11:00:17;;;;;;;26.40;14.90;;;;;;;;;;5074244;28;20457;-69
2021/09/06 11:02:45;;;;;;;18.47;14.10;;;;;;;;;;5075018;28;20528;-69
2021/09/06 11:05:18;;;;;;;23.97;15.13;;;;;;;;;;5075553;28;20535;-69
2021/09/06 11:07:51;;;;;;;19.37;15.90;;;;;;;;;;5074770;28;20472;-69
2021/09/06 11:10:22;;;;;;;24.90;19.53;;;;;;;;;;5075348;28;20789;-69
2021/09/06 11:12:54;;;;;;;19.50;14.37;;;;;;;;;;5074716;28;20995;-69
2021/09/06 11:15:25;;;;;;;17.93;14.30;;;;;;;;;;5074773;28;20938;-69
2021/09/06 11:17:59;;;;;;;20.50;15.03;;;;;;;;;;5074010;28;20476;-69
2021/09/06 11:20:27;;;;;;;57.27;15.30;;;;;;;;;;5074194;28;20436;-69
2021/09/06 11:22:59;;;;;;;24.10;14.00;;;;;;;;;;5074149;28;20531;-68
2021/09/06 11:25:27;;;;;;;17.17;13.97;;;;;;;;;;5073827;28;20429;-68
2021/09/06 11:27:54;;;;;;;16.60;12.73;;;;;;;;;;5073675;28;20476;-68
2021/09/06 11:30:23;;;;;;;16.47;12.00;;;;;;;;;;5074275;28;20455;-69
2021/09/06 11:32:50;;;;;;;14.77;12.40;;;;;;;;;;5074433;28;20443;-69
2021/09/06 11:35:19;;;;;;;19.27;13.50;;;;;;;;;;5074310;28;20496;-68
2021/09/06 11:37:46;;;;;;;15.00;12.70;;;;;;;;;;5073616;28;20480;-68
2021/09/06 11:40:15;;;;;;;17.63;12.50;;;;;;;;;;5073856;28;20534;-68
2021/09/06 11:42:42;;;;;;;19.80;12.73;;;;;;;;;;5073853;28;20455;-69
2021/09/06 11:45:10;;;;;;;14.63;11.27;;;;;;;;;;5073806;28;20440;-69
2021/09/06 11:47:37;;;;;;;14.37;12.53;;;;;;;;;;5073434;28;20476;-68
2021/09/06 11:50:08;;;;;;;15.83;11.80;;;;;;;;;;5073816;28;20473;-68
2021/09/06 11:52:37;;;;;;;18.57;12.93;;;;;;;;;;5073799;28;20425;-68
2021/09/06 11:55:05;;;;;;;14.83;12.63;;;;;;;;;;5073696;28;20436;-68
2021/09/06 11:57:34;;;;;;;13.80;10.90;;;;;;;;;;5073535;28;20873;-68
2021/09/06 12:00:02;;;;;;;13.87;11.03;;;;;;;;;;5073600;28;20448;-69
2021/09/06 12:02:29;;;;;;;20.40;13.17;;;;;;;;;;5074020;28;20515;-69
2021/09/06 12:05:03;;;;;;;17.40;12.57;;;;;;;;;;5073398;28;20441;-69
2021/09/06 12:07:30;;;;;;;14.97;12.37;;;;;;;;;;5073399;28;20511;-69
2021/09/06 12:09:57;;;;;;;17.73;12.60;;;;;;;;;;5073325;28;20443;-69
2021/09/06 12:12:26;;;;;;;34.37;12.47;;;;;;;;;;5073153;28;20440;-69
2021/09/06 12:14:55;;;;;;;15.97;10.70;;;;;;;;;;5073401;28;20805;-69
2021/09/06 12:17:23;;;;;;;19.30;11.80;;;;;;;;;;5073668;28;20478;-69
2021/09/06 12:19:51;;;;;;;11.83;10.03;;;;;;;;;;5073519;28;20441;-69
2021/09/06 12:22:19;;;;;;;15.03;11.10;;;;;;;;;;5073707;28;20451;-69
2021/09/06 12:24:47;;;;;;;13.07;10.47;;;;;;;;;;5073089;28;20931;-69
2021/09/06 12:27:15;;;;;;;12.73;10.67;;;;;;;;;;5072971;28;20474;-69
2021/09/06 12:29:57;;;;;;;14.13;10.70;;;;;;;;;;5072922;28;20866;-69
2021/09/06 12:32:27;;;;;;;14.83;11.40;;;;;;;;;;5073782;28;20503;-69
2021/09/06 12:34:54;;;;;;;15.87;10.40;;;;;;;;;;5072947;28;20428;-69
2021/09/06 12:37:23;;;;;;;14.47;9.70;;;;;;;;;;5073625;28;20455;-69
2021/09/06 12:39:50;;;;;;;13.93;11.50;;;;;;;;;;5072777;28;20445;-69
2021/09/06 12:42:17;;;;;;;14.60;10.93;;;;;;;;;;5073411;28;20440;-69
2021/09/06 12:44:44;;;;;;;14.70;10.10;;;;;;;;;;5073001;28;20453;-69
2021/09/06 12:47:12;;;;;;;17.97;10.33;;;;;;;;;;5072760;28;20799;-70
2021/09/06 12:49:40;;;;;;;12.13;10.17;;;;;;;;;;5073442;28;20986;-70
2021/09/06 12:52:08;;;;;;;13.87;9.90;;;;;;;;;;5073055;28;20536;-70
2021/09/06 12:54:35;;;;;;;18.50;9.63;;;;;;;;;;5072965;28;20440;-70
2021/09/06 12:57:02;;;;;;;12.87;10.27;;;;;;;;;;5072854;28;20436;-70
2021/09/06 12:59:29;;;;;;;13.30;9.63;;;;;;;;;;5073004;28;20946;-70
2021/09/06 13:01:57;;;;;;;12.60;9.40;;;;;;;;;;5072913;28;20824;-69
2021/09/06 13:04:24;;;;;;;13.90;9.77;;;;;;;;;;5072820;28;20527;-70
2021/09/06 13:06:54;;;;;;;13.10;11.13;;;;;;;;;;5073417;28;20472;-70
2021/09/06 13:09:21;;;;;;;28.07;23.83;;;;;;;;;;5072785;28;20849;-70
2021/09/06 13:11:48;;;;;;;13.60;11.57;;;;;;;;;;5092917;28;20476;-69
2021/09/06 13:14:15;;;;;;;15.17;11.50;;;;;;;;;;5092716;28;20481;-69
2021/09/06 13:16:43;;;;;;;13.03;10.70;;;;;;;;;;5092647;28;20531;-70
2021/09/06 13:19:10;;;;;;;11.83;9.90;;;;;;;;;;5092873;28;20445;-69
2021/09/06 13:21:37;;;;;;;13.57;10.77;;;;;;;;;;5096438;28;20533;-69
2021/09/06 13:24:06;;;;;;;15.60;12.30;;;;;;;;;;5096397;28;20490;-71
2021/09/06 13:26:34;;;;;;;11.87;9.80;;;;;;;;;;5096569;28;20449;-72
2021/09/06 13:29:01;;;;;;;10.30;9.20;;;;;;;;;;5096442;28;20480;-71
2021/09/06 13:31:28;;;;;;;12.90;9.80;;;;;;;;;;5096198;28;20442;-71
2021/09/06 13:33:56;;;;;;;12.07;9.87;;;;;;;;;;5096760;28;20529;-71
2021/09/06 13:36:23;;;;;;;15.80;10.07;;;;;;;;;;5096614;28;20519;-71
2021/09/06 13:38:51;;;;;;;15.73;10.00;;;;;;;;;;5096473;28;20496;-71
2021/09/06 13:41:19;;;;;;;10.57;9.47;;;;;;;;;;5081640;28;20948;-70
2021/09/06 13:43:47;;;;;;;12.07;8.87;;;;;;;;;;5075295;28;20920;-70
2021/09/06 13:46:14;;;;;;;11.27;8.77;;;;;;;;;;5075824;28;20445;-70
2021/09/06 13:48:41;;;;;;;10.87;9.33;;;;;;;;;;5075887;28;20578;-70
2021/09/06 13:51:08;;;;;;;10.00;8.77;;;;;;;;;;5076145;28;20786;-71
2021/09/06 13:53:36;;;;;;;14.10;8.63;;;;;;;;;;5075332;28;20446;-70
2021/09/06 13:56:04;;;;;;;9.53;8.30;;;;;;;;;;5075043;28;20448;-70
2021/09/06 13:58:32;;;;;;;24.43;10.97;;;;;;;;;;5075574;28;20496;-70
2021/09/06 14:00:59;;;;;;;14.30;11.20;;;;;;;;;;5075797;28;20442;-70
2021/09/06 14:03:27;;;;;;;13.40;10.67;;;;;;;;;;5075988;28;20439;-70
2021/09/06 14:05:54;;;;;;;12.60;9.93;;;;;;;;;;5075465;28;20493;-70
2021/09/06 14:08:21;;;;;;;13.40;10.47;;;;;;;;;;5075491;28;20481;-70
2021/09/06 14:10:48;;;;;;;12.73;10.30;;;;;;;;;;5073980;28;20446;-70
2021/09/06 14:13:16;;;;;;;14.73;11.20;;;;;;;;;;5073004;28;20440;-71
2021/09/06 14:15:45;;;;;;;15.03;10.70;;;;;;;;;;5075168;28;20445;-70
2021/09/06 14:18:12;;;;;;;10.80;9.70;;;;;;;;;;5075128;28;20939;-71
2021/09/06 14:20:40;;;;;;;10.23;9.17;;;;;;;;;;5075542;28;20824;-71
2021/09/06 14:23:07;;;;;;;12.33;10.50;;;;;;;;;;5075166;28;21013;-71